createdAt,value
2019-05-26T00:02:10.125Z,12.40
2019-05-26T00:04:37.904Z,12.40
2019-05-26T00:07:05.692Z,12.40
2019-05-26T00:09:33.481Z,12.30
2019-05-26T00:12:01.295Z,12.20
2019-05-26T00:14:29.207Z,12.20
2019-05-26T00:16:57.012Z,12.20
2019-05-26T00:19:24.784Z,12.20
2019-05-26T00:21:52.600Z,12.10
2019-05-26T00:24:20.375Z,12.10
2019-05-26T00:26:48.151Z,12.00
2019-05-26T00:29:15.953Z,12.00
2019-05-26T00:31:43.736Z,12.00
2019-05-26T00:34:11.604Z,12.00
2019-05-26T00:36:39.404Z,12.00
2019-05-26T00:39:07.311Z,12.00
2019-05-26T00:41:35.147Z,12.00
2019-05-26T00:44:02.948Z,12.00
2019-05-26T00:46:30.724Z,12.00
2019-05-26T00:49:17.820Z,12.00
2019-05-26T00:51:45.984Z,12.00
2019-05-26T00:54:13.766Z,12.00
2019-05-26T00:56:41.613Z,11.90
2019-05-26T00:59:09.412Z,11.90
2019-05-26T01:01:37.478Z,11.80
2019-05-26T01:04:05.331Z,11.80
2019-05-26T01:06:33.105Z,11.60
2019-05-26T01:09:00.899Z,11.50
2019-05-26T01:11:28.708Z,11.40
2019-05-26T01:13:56.500Z,11.20
2019-05-26T01:16:24.287Z,11.00
2019-05-26T01:18:52.106Z,10.90
2019-05-26T01:21:20.292Z,10.70
2019-05-26T01:23:48.128Z,10.80
2019-05-26T01:26:16.175Z,10.80
2019-05-26T01:28:44.005Z,10.70
2019-05-26T01:31:11.783Z,10.80
2019-05-26T01:33:40.079Z,10.70
2019-05-26T01:36:08.016Z,10.70
2019-05-26T01:38:35.984Z,10.80
2019-05-26T01:41:03.941Z,10.80
2019-05-26T01:43:31.824Z,10.80
2019-05-26T01:45:59.626Z,10.80
2019-05-26T01:48:27.422Z,10.80
2019-05-26T01:50:55.206Z,10.80
2019-05-26T01:53:23.318Z,10.90
2019-05-26T01:55:51.111Z,10.90
2019-05-26T01:58:18.914Z,10.80
2019-05-26T02:00:47.775Z,10.80
2019-05-26T02:03:15.571Z,10.80
2019-05-26T02:05:43.386Z,10.80
2019-05-26T02:08:12.116Z,10.70
2019-05-26T02:10:40.148Z,10.70
2019-05-26T02:13:07.951Z,10.70
2019-05-26T02:15:35.755Z,10.70
2019-05-26T02:18:03.880Z,10.60
2019-05-26T02:20:31.680Z,10.60
2019-05-26T02:22:59.455Z,10.50
2019-05-26T02:25:28.299Z,10.50
2019-05-26T02:27:56.087Z,10.50
2019-05-26T02:30:23.968Z,10.50
2019-05-26T02:32:51.744Z,10.50
2019-05-26T02:35:19.838Z,10.50
2019-05-26T02:37:47.626Z,10.60
2019-05-26T02:40:15.707Z,10.60
2019-05-26T02:42:43.492Z,10.70
2019-05-26T02:45:14.443Z,10.80
2019-05-26T02:47:42.217Z,10.80
2019-05-26T02:50:10.393Z,10.90
2019-05-26T02:52:38.164Z,10.80
2019-05-26T02:55:06.252Z,10.80
2019-05-26T02:57:34.041Z,10.80
2019-05-26T03:00:02.206Z,10.80
2019-05-26T03:02:30.289Z,10.80
2019-05-26T03:04:58.100Z,10.80
2019-05-26T03:07:26.733Z,10.80
2019-05-26T03:09:55.511Z,10.70
2019-05-26T03:12:24.711Z,10.70
2019-05-26T03:14:52.947Z,10.70
2019-05-26T03:17:20.759Z,10.70
2019-05-26T03:19:49.888Z,10.70
2019-05-26T03:22:19.164Z,10.70
2019-05-26T03:24:48.653Z,10.70
2019-05-26T03:27:16.448Z,10.70
2019-05-26T03:29:44.246Z,10.70
2019-05-26T03:32:12.062Z,10.70
2019-05-26T03:34:39.879Z,10.70
2019-05-26T03:37:07.673Z,10.70
2019-05-26T03:39:44.737Z,10.70
2019-05-26T03:42:05.065Z,10.70
2019-05-26T03:44:32.873Z,10.80
2019-05-26T03:47:00.657Z,10.80
2019-05-26T03:49:28.459Z,10.90
2019-05-26T03:51:56.297Z,10.90
2019-05-26T03:54:24.155Z,10.70
2019-05-26T03:56:51.957Z,10.70
2019-05-26T03:59:19.743Z,10.80
2019-05-26T04:01:47.545Z,10.80
2019-05-26T04:04:15.305Z,10.90
2019-05-26T04:06:43.099Z,10.90
2019-05-26T04:09:10.896Z,11.00
2019-05-26T04:11:38.687Z,11.00
2019-05-26T04:14:06.784Z,11.10
2019-05-26T04:16:34.585Z,11.00
2019-05-26T04:19:02.441Z,11.00
2019-05-26T04:21:30.233Z,11.00
2019-05-26T04:23:58.024Z,11.00
2019-05-26T04:26:25.804Z,11.10
2019-05-26T04:28:54.183Z,11.20
2019-05-26T04:31:21.992Z,11.30
2019-05-26T04:33:49.853Z,11.30
2019-05-26T04:36:17.631Z,11.30
2019-05-26T04:38:45.411Z,11.40
2019-05-26T04:41:13.197Z,11.50
2019-05-26T04:43:40.990Z,11.50
2019-05-26T04:46:08.785Z,11.60
2019-05-26T04:48:36.586Z,11.60
2019-05-26T04:51:04.407Z,11.60
2019-05-26T04:53:32.196Z,11.60
2019-05-26T04:55:59.974Z,11.70
2019-05-26T04:58:27.772Z,11.80
2019-05-26T05:00:55.571Z,11.90
2019-05-26T05:03:23.409Z,12.00
2019-05-26T05:05:51.199Z,12.00
2019-05-26T05:08:19.064Z,12.10
2019-05-26T05:10:46.878Z,12.10
2019-05-26T05:13:14.685Z,12.20
2019-05-26T05:15:42.483Z,12.30
2019-05-26T05:18:10.271Z,12.30
2019-05-26T05:20:38.047Z,12.40
2019-05-26T05:23:05.878Z,12.50
2019-05-26T05:25:33.656Z,12.60
2019-05-26T05:28:01.464Z,12.60
2019-05-26T05:30:29.321Z,12.70
2019-05-26T05:32:57.203Z,12.70
2019-05-26T05:35:24.991Z,12.70
2019-05-26T05:37:52.831Z,12.80
2019-05-26T05:40:21.643Z,12.90
2019-05-26T05:42:49.460Z,13.10
2019-05-26T05:45:17.427Z,13.20
2019-05-26T05:47:45.207Z,13.30
2019-05-26T05:50:13.296Z,13.40
2019-05-26T05:52:41.107Z,13.40
2019-05-26T05:55:09.220Z,13.40
2019-05-26T05:57:37.017Z,13.60
2019-05-26T06:00:05.504Z,13.70
2019-05-26T06:02:33.299Z,13.70
2019-05-26T06:05:01.207Z,13.80
2019-05-26T06:07:29.064Z,13.80
2019-05-26T06:09:56.889Z,13.90
2019-05-26T06:12:24.838Z,14.00
2019-05-26T06:14:52.693Z,14.10
2019-05-26T06:17:20.588Z,14.10
2019-05-26T06:19:48.389Z,14.10
2019-05-26T06:22:16.177Z,14.20
2019-05-26T06:24:43.959Z,14.20
2019-05-26T06:27:11.771Z,14.20
2019-05-26T06:29:39.571Z,14.20
2019-05-26T06:32:07.723Z,14.10
2019-05-26T06:34:35.832Z,14.20
2019-05-26T06:37:03.620Z,14.20
2019-05-26T06:39:31.401Z,14.20
2019-05-26T06:41:59.251Z,14.20
2019-05-26T06:44:27.028Z,14.20
2019-05-26T06:46:54.836Z,14.20
2019-05-26T06:49:22.652Z,14.30
2019-05-26T06:51:50.455Z,14.50
2019-05-26T06:54:18.236Z,14.60
2019-05-26T06:56:46.028Z,14.70
2019-05-26T06:59:13.860Z,14.70
2019-05-26T07:01:41.728Z,14.70
2019-05-26T07:04:09.524Z,14.80
2019-05-26T07:06:37.311Z,14.80
2019-05-26T07:09:06.294Z,14.80
2019-05-26T07:11:50.006Z,14.90
2019-05-26T07:14:03.952Z,14.90
2019-05-26T07:16:38.237Z,15.00
2019-05-26T07:19:01.255Z,15.00
2019-05-26T07:21:29.046Z,15.20
2019-05-26T07:23:56.872Z,15.20
2019-05-26T07:26:24.879Z,15.20
2019-05-26T07:28:53.102Z,15.30
2019-05-26T07:31:20.951Z,15.40
2019-05-26T07:33:48.711Z,15.50
2019-05-26T07:36:16.789Z,15.60
2019-05-26T07:38:44.583Z,15.60
2019-05-26T07:41:12.650Z,15.70
2019-05-26T07:43:40.455Z,15.70
2019-05-26T07:46:08.249Z,15.80
2019-05-26T07:48:36.366Z,15.90
2019-05-26T07:51:04.461Z,16.00
2019-05-26T07:53:32.271Z,16.10
2019-05-26T07:56:00.315Z,16.20
2019-05-26T07:58:28.105Z,16.30
2019-05-26T08:00:56.184Z,16.40
2019-05-26T08:03:24.277Z,16.60
2019-05-26T08:05:52.092Z,16.60
2019-05-26T08:08:19.910Z,16.70
2019-05-26T08:10:47.693Z,16.70
2019-05-26T08:13:15.610Z,16.80
2019-05-26T08:15:43.645Z,16.90
2019-05-26T08:18:11.445Z,16.90
2019-05-26T08:20:42.275Z,17.00
2019-05-26T08:23:10.072Z,17.00
2019-05-26T08:25:37.895Z,17.10
2019-05-26T08:28:05.734Z,17.30
2019-05-26T08:30:33.569Z,17.50
2019-05-26T08:33:01.351Z,17.60
2019-05-26T08:35:29.142Z,17.60
2019-05-26T08:37:57.019Z,17.50
2019-05-26T08:40:24.815Z,17.40
2019-05-26T08:42:52.620Z,17.40
2019-05-26T08:45:22.086Z,17.40
2019-05-26T08:47:50.539Z,17.40
2019-05-26T08:50:18.399Z,17.40
2019-05-26T08:52:46.276Z,17.40
2019-05-26T08:55:14.211Z,17.50
2019-05-26T08:57:42.304Z,17.70
2019-05-26T09:00:10.453Z,17.70
2019-05-26T09:02:38.280Z,17.80
2019-05-26T09:05:06.311Z,17.90
2019-05-26T09:07:34.087Z,17.90
2019-05-26T09:10:01.972Z,17.80
2019-05-26T09:12:29.740Z,17.80
2019-05-26T09:14:57.556Z,18.00
2019-05-26T09:17:25.343Z,18.20
2019-05-26T09:19:53.227Z,18.40
2019-05-26T09:22:20.999Z,18.50
2019-05-26T09:24:48.876Z,18.50
2019-05-26T09:27:16.652Z,18.50
2019-05-26T09:29:44.465Z,18.60
2019-05-26T09:32:12.235Z,18.60
2019-05-26T09:34:40.013Z,18.60
2019-05-26T09:37:07.791Z,18.60
2019-05-26T09:39:35.598Z,18.60
2019-05-26T09:42:03.560Z,18.60
2019-05-26T09:44:31.363Z,18.60
2019-05-26T09:46:59.171Z,18.60
2019-05-26T09:49:26.970Z,18.70
2019-05-26T09:51:54.756Z,18.70
2019-05-26T09:54:22.565Z,18.70
2019-05-26T09:56:50.366Z,18.70
2019-05-26T09:59:18.158Z,18.80
2019-05-26T10:01:45.953Z,18.70
2019-05-26T10:04:13.744Z,18.70
2019-05-26T10:06:41.575Z,18.70
2019-05-26T10:09:09.416Z,18.80
2019-05-26T10:11:37.264Z,18.90
2019-05-26T10:14:05.062Z,19.00
2019-05-26T10:16:32.913Z,19.00
2019-05-26T10:19:00.703Z,18.90
2019-05-26T10:21:28.607Z,18.80
2019-05-26T10:23:56.697Z,18.80
2019-05-26T10:26:24.584Z,18.80
2019-05-26T10:28:52.409Z,18.80
2019-05-26T10:31:20.267Z,18.80
2019-05-26T10:33:48.175Z,19.00
2019-05-26T10:36:15.995Z,19.20
2019-05-26T10:38:44.008Z,19.50
2019-05-26T10:41:11.976Z,19.70
2019-05-26T10:43:47.432Z,19.90
2019-05-26T10:46:09.355Z,20.00
2019-05-26T10:48:37.158Z,20.20
2019-05-26T10:51:06.999Z,20.40
2019-05-26T10:53:34.595Z,20.50
2019-05-26T10:56:02.501Z,20.30
2019-05-26T10:58:30.328Z,20.40
2019-05-26T11:00:58.293Z,20.30
2019-05-26T11:03:26.097Z,20.40
2019-05-26T11:05:53.899Z,20.30
2019-05-26T11:08:21.715Z,20.30
2019-05-26T11:10:49.511Z,20.50
2019-05-26T11:13:17.316Z,20.20
2019-05-26T11:15:45.593Z,20.20
2019-05-26T11:18:13.401Z,20.30
2019-05-26T11:20:41.254Z,20.50
2019-05-26T11:23:09.081Z,20.40
2019-05-26T11:25:36.903Z,20.40
2019-05-26T11:28:04.742Z,20.50
2019-05-26T11:30:32.728Z,20.60
2019-05-26T11:33:00.536Z,20.70
2019-05-26T11:35:28.416Z,20.80
2019-05-26T11:37:56.232Z,21.00
2019-05-26T11:40:24.153Z,21.20
2019-05-26T11:42:51.985Z,21.30
2019-05-26T11:45:20.120Z,21.60
2019-05-26T11:47:47.928Z,21.60
2019-05-26T11:50:16.280Z,21.60
2019-05-26T11:52:44.100Z,21.50
2019-05-26T11:55:12.074Z,21.50
2019-05-26T11:57:39.957Z,21.40
2019-05-26T12:00:10.253Z,21.40
2019-05-26T12:02:38.720Z,21.40
2019-05-26T12:05:07.604Z,21.40
2019-05-26T12:07:36.134Z,21.40
2019-05-26T12:10:04.197Z,21.50
2019-05-26T12:12:32.017Z,21.50
2019-05-26T12:14:59.824Z,21.40
2019-05-26T12:17:27.622Z,21.40
2019-05-26T12:19:55.458Z,21.60
2019-05-26T12:22:23.263Z,21.70
2019-05-26T12:24:51.106Z,21.60
2019-05-26T12:27:19.014Z,21.70
2019-05-26T12:29:46.852Z,21.50
2019-05-26T12:32:14.645Z,21.70
2019-05-26T12:34:42.466Z,21.70
2019-05-26T12:37:10.247Z,22.00
2019-05-26T12:39:38.044Z,22.10
2019-05-26T12:42:06.076Z,22.50
2019-05-26T12:44:46.756Z,23.10
2019-05-26T12:47:03.848Z,23.80
2019-05-26T12:49:31.648Z,23.90
2019-05-26T12:51:59.445Z,24.00
2019-05-26T12:54:27.619Z,24.00
2019-05-26T12:56:55.408Z,23.80
2019-05-26T12:59:23.293Z,24.20
2019-05-26T13:01:51.083Z,24.70
2019-05-26T13:04:18.884Z,24.80
2019-05-26T13:06:46.669Z,24.70
2019-05-26T13:09:14.636Z,24.60
2019-05-26T13:11:42.508Z,24.30
2019-05-26T13:14:10.324Z,24.30
2019-05-26T13:16:38.111Z,24.40
2019-05-26T13:19:05.959Z,24.50
2019-05-26T13:21:33.759Z,24.30
2019-05-26T13:24:01.576Z,24.30
2019-05-26T13:26:29.492Z,23.90
2019-05-26T13:28:57.297Z,23.90
2019-05-26T13:31:25.105Z,23.70
2019-05-26T13:33:53.255Z,23.70
2019-05-26T13:36:21.818Z,24.30
2019-05-26T13:38:49.649Z,24.50
2019-05-26T13:41:17.551Z,25.00
2019-05-26T13:43:45.345Z,25.40
2019-05-26T13:46:13.864Z,25.60
2019-05-26T13:48:41.664Z,26.10
2019-05-26T13:51:09.720Z,26.00
2019-05-26T13:53:37.508Z,25.80
2019-05-26T13:56:05.435Z,25.40
2019-05-26T13:58:33.214Z,25.40
2019-05-26T14:01:01.015Z,25.90
2019-05-26T14:03:28.800Z,26.30
2019-05-26T14:05:56.614Z,27.00
2019-05-26T14:08:24.407Z,27.10
2019-05-26T14:10:52.196Z,27.10
2019-05-26T14:13:20.009Z,26.90
2019-05-26T14:15:48.996Z,26.80
2019-05-26T14:18:18.239Z,26.50
2019-05-26T14:20:46.223Z,25.80
2019-05-26T14:23:14.012Z,25.10
2019-05-26T14:25:41.839Z,24.70
2019-05-26T14:28:09.623Z,24.40
2019-05-26T14:30:37.426Z,24.60
2019-05-26T14:33:05.264Z,24.90
2019-05-26T14:35:33.315Z,24.90
2019-05-26T14:38:01.099Z,25.50
2019-05-26T14:40:29.257Z,26.10
2019-05-26T14:42:57.230Z,26.30
2019-05-26T14:45:25.032Z,26.20
2019-05-26T14:47:52.809Z,26.20
2019-05-26T14:50:22.461Z,26.20
2019-05-26T14:52:50.245Z,25.90
2019-05-26T14:55:18.420Z,25.80
2019-05-26T14:57:46.363Z,25.50
2019-05-26T15:00:15.917Z,25.20
2019-05-26T15:02:43.699Z,25.10
2019-05-26T15:05:11.764Z,25.20
2019-05-26T15:07:39.624Z,25.10
2019-05-26T15:10:07.689Z,25.00
2019-05-26T15:12:35.532Z,24.90
2019-05-26T15:15:03.460Z,25.10
2019-05-26T15:17:31.256Z,25.10
2019-05-26T15:19:59.056Z,24.60
2019-05-26T15:22:34.119Z,24.60
2019-05-26T15:25:02.401Z,24.70
2019-05-26T15:27:30.538Z,24.60
2019-05-26T15:29:58.302Z,24.20
2019-05-26T15:32:26.375Z,23.80
2019-05-26T15:34:54.147Z,23.50
2019-05-26T15:37:21.956Z,23.70
2019-05-26T15:39:49.787Z,23.70
2019-05-26T15:42:17.585Z,23.70
2019-05-26T15:44:45.377Z,23.50
2019-05-26T15:47:13.232Z,23.50
2019-05-26T15:49:41.018Z,23.40
2019-05-26T15:52:08.816Z,23.30
2019-05-26T15:54:36.620Z,23.30
2019-05-26T15:57:04.442Z,23.10
2019-05-26T15:59:32.243Z,23.20
2019-05-26T16:02:00.096Z,23.20
2019-05-26T16:04:28.092Z,23.20
2019-05-26T16:06:55.913Z,23.10
2019-05-26T16:09:23.672Z,23.00
2019-05-26T16:11:52.641Z,22.90
2019-05-26T16:14:20.436Z,22.80
2019-05-26T16:16:51.314Z,22.70
2019-05-26T16:19:17.794Z,22.70
2019-05-26T16:21:45.604Z,22.70
2019-05-26T16:24:13.401Z,22.50
2019-05-26T16:26:41.276Z,22.40
2019-05-26T16:29:09.352Z,22.30
2019-05-26T16:31:40.135Z,22.10
2019-05-26T16:34:07.920Z,22.10
2019-05-26T16:36:35.716Z,22.10
2019-05-26T16:39:04.787Z,22.20
2019-05-26T16:41:32.586Z,22.40
2019-05-26T16:44:00.394Z,22.40
2019-05-26T16:46:28.194Z,22.30
2019-05-26T16:48:55.987Z,22.40
2019-05-26T16:51:23.795Z,22.50
2019-05-26T16:53:51.571Z,22.60
2019-05-26T16:56:19.384Z,22.40
2019-05-26T16:58:47.184Z,22.20
2019-05-26T17:01:15.467Z,22.20
2019-05-26T17:03:43.257Z,22.20
2019-05-26T17:06:11.044Z,22.10
2019-05-26T17:08:38.819Z,22.30
2019-05-26T17:11:06.591Z,22.30
2019-05-26T17:13:34.489Z,22.10
2019-05-26T17:16:02.376Z,22.00
2019-05-26T17:18:30.260Z,22.10
2019-05-26T17:20:58.307Z,22.10
2019-05-26T17:23:26.172Z,22.10
2019-05-26T17:25:53.939Z,22.00
2019-05-26T17:28:21.809Z,22.10
2019-05-26T17:30:49.944Z,22.10
2019-05-26T17:33:17.752Z,22.00
2019-05-26T17:35:45.523Z,22.00
2019-05-26T17:38:13.307Z,22.00
2019-05-26T17:40:41.091Z,22.00
2019-05-26T17:43:08.904Z,22.00
2019-05-26T17:45:36.754Z,21.80
2019-05-26T17:48:04.531Z,21.80
2019-05-26T17:50:32.316Z,21.70
2019-05-26T17:53:00.097Z,21.70
2019-05-26T17:55:27.904Z,21.70
2019-05-26T17:57:55.761Z,21.60
2019-05-26T18:00:23.661Z,21.50
2019-05-26T18:02:51.625Z,21.50
2019-05-26T18:05:19.479Z,21.40
2019-05-26T18:07:47.387Z,21.30
2019-05-26T18:10:15.532Z,21.30
2019-05-26T18:12:43.330Z,21.20
2019-05-26T18:15:11.200Z,21.20
2019-05-26T18:17:47.082Z,21.10
2019-05-26T18:20:09.066Z,21.20
2019-05-26T18:22:36.899Z,21.20
2019-05-26T18:25:05.252Z,21.10
2019-05-26T18:27:33.081Z,21.20
2019-05-26T18:30:00.941Z,21.10
2019-05-26T18:32:28.721Z,21.00
2019-05-26T18:34:56.512Z,21.10
2019-05-26T18:37:24.368Z,21.10
2019-05-26T18:39:52.162Z,21.10
2019-05-26T18:42:19.960Z,21.00
2019-05-26T18:44:47.827Z,21.00
2019-05-26T18:47:15.651Z,21.00
2019-05-26T18:49:43.452Z,20.90
2019-05-26T18:52:11.228Z,21.00
2019-05-26T18:54:39.106Z,20.90
2019-05-26T18:57:06.977Z,20.80
2019-05-26T18:59:34.787Z,20.80
2019-05-26T19:02:02.860Z,20.90
2019-05-26T19:04:30.619Z,20.80
2019-05-26T19:06:58.408Z,20.80
2019-05-26T19:09:26.284Z,20.80
2019-05-26T19:11:54.148Z,20.80
2019-05-26T19:14:21.972Z,20.80
2019-05-26T19:16:50.212Z,20.80
2019-05-26T19:19:18.245Z,20.80
2019-05-26T19:21:46.043Z,20.80
2019-05-26T19:24:13.875Z,20.80
2019-05-26T19:26:41.882Z,20.80
2019-05-26T19:29:09.691Z,20.70
2019-05-26T19:31:37.594Z,20.80
2019-05-26T19:34:05.540Z,20.70
2019-05-26T19:36:33.511Z,20.80
2019-05-26T19:39:01.456Z,20.80
2019-05-26T19:41:29.267Z,20.80
2019-05-26T19:43:57.034Z,20.70
2019-05-26T19:46:24.897Z,20.70
2019-05-26T19:48:53.028Z,20.70
2019-05-26T19:51:20.900Z,20.70
2019-05-26T19:53:48.679Z,20.50
2019-05-26T19:56:16.592Z,20.50
2019-05-26T19:58:44.484Z,20.50
2019-05-26T20:01:12.669Z,20.60
2019-05-26T20:03:40.507Z,20.60
2019-05-26T20:06:08.506Z,20.50
2019-05-26T20:08:36.398Z,20.40
2019-05-26T20:11:04.322Z,20.40
2019-05-26T20:13:32.164Z,20.40
2019-05-26T20:16:00.017Z,20.30
2019-05-26T20:18:27.972Z,20.30
2019-05-26T20:20:55.900Z,20.40
2019-05-26T20:23:23.688Z,20.40
2019-05-26T20:25:51.541Z,20.40
2019-05-26T20:28:19.444Z,20.40
2019-05-26T20:30:47.325Z,20.30
2019-05-26T20:33:15.225Z,20.30
2019-05-26T20:35:43.108Z,20.40
2019-05-26T20:38:11.434Z,20.40
2019-05-26T20:40:39.324Z,20.30
2019-05-26T20:43:07.120Z,20.30
2019-05-26T20:45:34.975Z,20.20
2019-05-26T20:48:03.011Z,20.20
2019-05-26T20:50:30.923Z,20.20
2019-05-26T20:52:58.927Z,20.20
2019-05-26T20:55:26.911Z,20.10
2019-05-26T20:57:54.791Z,20.10
2019-05-26T21:00:23.247Z,20.10
2019-05-26T21:02:51.036Z,20.00
2019-05-26T21:05:19.084Z,20.00
2019-05-26T21:07:47.031Z,20.00
2019-05-26T21:10:15.403Z,20.00
2019-05-26T21:12:43.243Z,20.00
2019-05-26T21:15:11.880Z,20.00
2019-05-26T21:17:39.779Z,20.00
2019-05-26T21:20:08.056Z,20.00
2019-05-26T21:22:35.860Z,19.90
2019-05-26T21:25:03.724Z,19.80
2019-05-26T21:27:31.608Z,19.90
2019-05-26T21:29:59.652Z,19.80
2019-05-26T21:32:31.082Z,19.70
2019-05-26T21:34:57.045Z,19.70
2019-05-26T21:37:25.180Z,19.70
2019-05-26T21:39:52.952Z,19.70
2019-05-26T21:42:20.736Z,19.70
2019-05-26T21:44:48.532Z,19.70
2019-05-26T21:47:16.304Z,19.80
2019-05-26T21:49:44.090Z,19.70
2019-05-26T21:52:11.856Z,19.60
2019-05-26T21:54:41.341Z,19.70
2019-05-26T21:57:09.317Z,19.60
2019-05-26T21:59:37.104Z,19.60
2019-05-26T22:02:05.125Z,19.60
2019-05-26T22:04:33.008Z,19.70
2019-05-26T22:07:00.897Z,19.60
2019-05-26T22:09:28.741Z,19.60
2019-05-26T22:11:56.692Z,19.60
2019-05-26T22:14:24.509Z,19.60
2019-05-26T22:16:52.315Z,19.50
2019-05-26T22:19:20.117Z,19.50
2019-05-26T22:21:47.888Z,19.50
2019-05-26T22:24:15.759Z,19.40
2019-05-26T22:26:43.587Z,19.50
2019-05-26T22:29:11.381Z,19.50
2019-05-26T22:31:39.207Z,19.50
2019-05-26T22:34:06.992Z,19.50
2019-05-26T22:36:34.757Z,19.40
2019-05-26T22:39:02.584Z,19.40
2019-05-26T22:41:30.613Z,19.50
2019-05-26T22:43:58.411Z,19.40
2019-05-26T22:46:26.307Z,19.50
2019-05-26T22:48:54.161Z,19.50
2019-05-26T22:51:21.948Z,19.50
2019-05-26T22:53:49.719Z,19.50
2019-05-26T22:56:17.515Z,19.40
2019-05-26T22:58:45.380Z,19.40
2019-05-26T23:01:13.207Z,19.40
2019-05-26T23:03:41.008Z,19.40
2019-05-26T23:06:08.831Z,19.40
2019-05-26T23:08:36.636Z,19.40
2019-05-26T23:11:04.449Z,19.30
2019-05-26T23:13:32.240Z,19.30
2019-05-26T23:16:00.064Z,19.30
2019-05-26T23:18:27.848Z,19.30
2019-05-26T23:20:55.692Z,19.30
2019-05-26T23:23:23.540Z,19.30
2019-05-26T23:25:51.338Z,19.20
2019-05-26T23:28:19.116Z,19.20
2019-05-26T23:30:47.104Z,19.20
2019-05-26T23:33:14.902Z,19.20
2019-05-26T23:35:42.709Z,19.20
2019-05-26T23:38:10.526Z,19.10
2019-05-26T23:40:38.300Z,19.10
2019-05-26T23:43:06.090Z,19.10
2019-05-26T23:45:33.892Z,19.10
2019-05-26T23:48:01.991Z,19.10
2019-05-26T23:50:29.774Z,19.00
2019-05-26T23:52:57.564Z,19.10
2019-05-26T23:55:25.352Z,19.00
2019-05-26T23:57:53.148Z,19.10
